createdAt,value
2022-11-21T00:01:54.794Z,71.75
2022-11-21T00:04:21.399Z,69.75
2022-11-21T00:06:47.928Z,61.97
2022-11-21T00:09:14.629Z,55.90
2022-11-21T00:11:41.123Z,60.83
2022-11-21T00:14:07.740Z,65.03
2022-11-21T00:16:34.298Z,70.68
2022-11-21T00:19:02.966Z,64.72
2022-11-21T00:21:29.622Z,62.85
2022-11-21T00:23:56.211Z,66.63
2022-11-21T00:26:22.794Z,67.05
2022-11-21T00:28:49.440Z,67.80
2022-11-21T00:31:24.103Z,63.75
2022-11-21T00:33:50.826Z,57.63
2022-11-21T00:36:17.435Z,57.58
2022-11-21T00:38:44.154Z,50.38
2022-11-21T00:41:10.827Z,50.20
2022-11-21T00:43:37.703Z,49.33
2022-11-21T00:46:04.402Z,44.13
2022-11-21T00:48:32.210Z,43.30
2022-11-21T00:51:00.484Z,41.90
2022-11-21T00:53:27.197Z,42.95
2022-11-21T00:55:53.840Z,44.00
2022-11-21T00:58:20.389Z,44.53
2022-11-21T01:00:47.060Z,44.13
2022-11-21T01:03:13.650Z,45.73
2022-11-21T01:05:40.293Z,48.47
2022-11-21T01:08:06.973Z,48.85
2022-11-21T01:10:35.521Z,47.83
2022-11-21T01:13:02.424Z,46.03
2022-11-21T01:15:29.093Z,49.40
2022-11-21T01:17:55.660Z,45.65
2022-11-21T01:20:22.246Z,46.20
2022-11-21T01:22:48.908Z,45.83
2022-11-21T01:25:15.519Z,48.45
2022-11-21T01:27:42.014Z,40.63
2022-11-21T01:30:09.049Z,47.95
2022-11-21T01:32:35.828Z,47.70
2022-11-21T01:35:02.406Z,46.40
2022-11-21T01:37:29.062Z,47.70
2022-11-21T01:39:55.611Z,50.70
2022-11-21T01:42:22.270Z,50.17
2022-11-21T01:44:52.047Z,50.10
2022-11-21T01:47:19.080Z,49.88
2022-11-21T01:49:46.996Z,50.03
2022-11-21T01:52:25.473Z,48.13
2022-11-21T01:54:56.985Z,46.40
2022-11-21T01:57:43.958Z,46.42
2022-11-21T02:00:18.248Z,44.90
2022-11-21T02:02:51.608Z,48.70
2022-11-21T02:05:23.280Z,52.90
2022-11-21T02:07:55.239Z,55.03
2022-11-21T02:10:22.940Z,56.65
2022-11-21T02:12:52.137Z,58.83
2022-11-21T02:15:21.549Z,68.35
2022-11-21T02:17:48.091Z,75.55
2022-11-21T02:20:17.705Z,90.45
2022-11-21T02:23:09.954Z,108.57
2022-11-21T02:25:39.184Z,121.85
2022-11-21T02:28:08.387Z,140.98
2022-11-21T02:30:37.683Z,138.85
2022-11-21T02:33:04.972Z,136.53
2022-11-21T02:35:33.744Z,135.77
2022-11-21T02:38:29.099Z,127.38
2022-11-21T02:41:01.776Z,132.23
2022-11-21T02:43:37.594Z,128.82
2022-11-21T02:46:04.248Z,131.60
2022-11-21T02:48:30.854Z,125.35
2022-11-21T02:50:57.417Z,121.60
2022-11-21T02:53:24.007Z,114.43
2022-11-21T02:55:50.716Z,109.20
2022-11-21T02:58:17.351Z,111.97
2022-11-21T03:00:44.054Z,111.78
2022-11-21T03:03:11.277Z,109.10
2022-11-21T03:05:39.557Z,112.33
2022-11-21T03:08:06.777Z,109.90
2022-11-21T03:10:33.723Z,110.50
2022-11-21T03:13:03.160Z,105.57
2022-11-21T03:15:32.068Z,100.35
2022-11-21T03:17:58.698Z,103.23
2022-11-21T03:20:25.540Z,105.57
2022-11-21T03:22:53.564Z,106.87
2022-11-21T03:25:20.932Z,109.35
2022-11-21T03:27:50.971Z,108.57
2022-11-21T03:30:17.669Z,117.82
2022-11-21T03:32:44.314Z,126.38
2022-11-21T03:35:11.731Z,131.73
2022-11-21T03:37:42.418Z,139.27
2022-11-21T03:40:09.793Z,142.70
2022-11-21T03:42:36.425Z,144.52
2022-11-21T03:45:03.270Z,138.25
2022-11-21T03:47:29.941Z,132.25
2022-11-21T03:49:56.518Z,139.57
2022-11-21T03:52:23.167Z,133.90
2022-11-21T03:54:49.759Z,127.83
2022-11-21T03:57:16.395Z,123.55
2022-11-21T03:59:42.956Z,126.97
2022-11-21T04:02:09.593Z,131.10
2022-11-21T04:04:36.132Z,133.25
2022-11-21T04:07:02.895Z,136.52
2022-11-21T04:09:29.654Z,133.30
2022-11-21T04:11:56.244Z,144.25
2022-11-21T04:14:22.728Z,150.80
2022-11-21T04:16:49.514Z,157.65
2022-11-21T04:19:16.178Z,156.38
2022-11-21T04:21:42.781Z,168.15
2022-11-21T04:24:09.378Z,209.15
2022-11-21T04:26:36.018Z,237.15
2022-11-21T04:29:02.621Z,246.98
2022-11-21T04:31:29.227Z,262.17
2022-11-21T04:33:55.794Z,271.98
2022-11-21T04:36:22.327Z,296.95
2022-11-21T04:38:48.998Z,331.63
2022-11-21T04:41:15.590Z,356.92
2022-11-21T04:43:42.229Z,372.55
2022-11-21T04:46:08.987Z,390.33
2022-11-21T04:48:35.664Z,397.95
2022-11-21T04:51:02.225Z,404.65
2022-11-21T04:53:28.782Z,427.25
2022-11-21T04:55:55.369Z,433.37
2022-11-21T04:58:21.903Z,437.60
2022-11-21T05:00:48.677Z,447.17
2022-11-21T05:03:15.519Z,436.92
2022-11-21T05:05:42.246Z,442.73
2022-11-21T05:08:08.816Z,432.40
2022-11-21T05:10:55.411Z,437.67
2022-11-21T05:13:22.115Z,436.83
2022-11-21T05:15:51.581Z,437.02
2022-11-21T05:18:19.980Z,428.03
2022-11-21T05:20:46.619Z,434.10
2022-11-21T05:23:13.337Z,433.83
2022-11-21T05:25:40.344Z,436.48
2022-11-21T05:28:07.071Z,437.55
2022-11-21T05:30:33.731Z,437.33
2022-11-21T05:33:00.463Z,442.95
2022-11-21T05:35:27.005Z,434.05
2022-11-21T05:37:59.622Z,438.10
2022-11-21T05:40:26.841Z,447.35
2022-11-21T05:43:11.800Z,448.45
2022-11-21T05:45:38.429Z,442.85
2022-11-21T05:48:07.935Z,451.23
2022-11-21T05:50:36.329Z,463.00
2022-11-21T05:53:04.984Z,458.50
2022-11-21T05:55:34.101Z,465.55
2022-11-21T05:58:01.375Z,475.00
2022-11-21T06:00:28.980Z,469.17
2022-11-21T06:03:14.224Z,458.15
2022-11-21T06:05:41.164Z,465.80
2022-11-21T06:08:07.803Z,460.05
2022-11-21T06:10:34.527Z,457.85
2022-11-21T06:13:01.592Z,472.30
2022-11-21T06:15:28.831Z,478.15
2022-11-21T06:17:55.453Z,478.63
2022-11-21T06:20:22.087Z,461.88
2022-11-21T06:22:48.700Z,472.25
2022-11-21T06:25:15.356Z,467.75
2022-11-21T06:27:41.937Z,466.30
2022-11-21T06:30:08.884Z,451.55
2022-11-21T06:32:38.629Z,453.63
2022-11-21T06:35:05.885Z,453.17
2022-11-21T06:37:32.527Z,456.45
2022-11-21T06:39:59.661Z,438.23
2022-11-21T06:42:26.362Z,448.83
2022-11-21T06:44:53.365Z,444.38
2022-11-21T06:47:20.401Z,445.10
2022-11-21T06:49:47.168Z,452.90
2022-11-21T06:52:13.769Z,454.30
2022-11-21T06:54:40.448Z,455.67
2022-11-21T06:57:07.293Z,441.08
2022-11-21T06:59:34.056Z,450.70
2022-11-21T07:02:00.760Z,443.10
2022-11-21T07:04:27.680Z,450.60
2022-11-21T07:06:54.516Z,445.65
2022-11-21T07:09:36.410Z,455.23
2022-11-21T07:12:22.147Z,457.73
2022-11-21T07:14:48.924Z,459.42
2022-11-21T07:17:15.784Z,450.20
2022-11-21T07:19:42.337Z,446.55
2022-11-21T07:22:09.204Z,441.73
2022-11-21T07:24:35.791Z,454.38
2022-11-21T07:27:02.502Z,441.75
2022-11-21T07:29:29.728Z,432.38
2022-11-21T07:31:56.645Z,427.10
2022-11-21T07:34:23.204Z,433.10
2022-11-21T07:36:49.806Z,429.42
2022-11-21T07:39:16.630Z,426.33
2022-11-21T07:41:43.184Z,434.17
2022-11-21T07:44:09.878Z,430.30
2022-11-21T07:46:36.491Z,442.17
2022-11-21T07:49:03.849Z,432.08
2022-11-21T07:51:30.846Z,421.17
2022-11-21T07:53:57.405Z,409.20
2022-11-21T07:56:26.436Z,413.73
2022-11-21T07:58:53.556Z,415.55
2022-11-21T08:01:20.249Z,408.60
2022-11-21T08:03:46.976Z,423.90
2022-11-21T08:06:13.908Z,414.48
2022-11-21T08:08:40.473Z,420.45
2022-11-21T08:11:07.323Z,418.20
2022-11-21T08:13:35.483Z,423.55
2022-11-21T08:16:05.359Z,411.30
2022-11-21T08:18:32.453Z,420.10
2022-11-21T08:21:02.500Z,421.13
2022-11-21T08:23:29.150Z,434.23
2022-11-21T08:25:55.707Z,440.67
2022-11-21T08:28:22.440Z,438.30
2022-11-21T08:30:49.390Z,419.13
2022-11-21T08:33:16.715Z,427.13
2022-11-21T08:35:43.364Z,430.13
2022-11-21T08:38:10.098Z,420.10
2022-11-21T08:40:36.866Z,413.57
2022-11-21T08:43:08.996Z,410.35
2022-11-21T08:45:36.959Z,410.55
2022-11-21T08:48:04.477Z,408.80
2022-11-21T08:50:32.070Z,426.40
2022-11-21T08:53:02.250Z,411.60
2022-11-21T08:55:29.930Z,415.05
2022-11-21T08:57:56.657Z,412.15
2022-11-21T09:00:23.531Z,422.17
2022-11-21T09:02:50.291Z,408.80
2022-11-21T09:05:16.880Z,430.08
2022-11-21T09:07:43.575Z,418.48
2022-11-21T09:10:10.602Z,424.90
2022-11-21T09:12:37.233Z,418.70
2022-11-21T09:15:23.007Z,412.83
2022-11-21T09:18:04.853Z,402.98
2022-11-21T09:20:34.199Z,399.77
2022-11-21T09:23:05.974Z,393.13
2022-11-21T09:25:33.062Z,385.45
2022-11-21T09:28:01.147Z,385.50
2022-11-21T09:30:27.798Z,384.55
2022-11-21T09:32:54.387Z,383.75
2022-11-21T09:35:21.078Z,396.85
2022-11-21T09:37:47.677Z,392.38
2022-11-21T09:40:17.687Z,392.08
2022-11-21T09:42:52.879Z,393.95
2022-11-21T09:45:38.432Z,395.63
2022-11-21T09:48:12.900Z,389.47
2022-11-21T09:50:47.093Z,399.58
2022-11-21T09:53:19.014Z,391.20
2022-11-21T09:56:13.973Z,403.08
2022-11-21T09:58:49.233Z,413.02
2022-11-21T10:01:17.224Z,424.87
2022-11-21T10:03:47.420Z,419.98
2022-11-21T10:06:26.545Z,413.63
2022-11-21T10:09:16.448Z,411.23
2022-11-21T10:12:21.063Z,395.67
2022-11-21T10:15:09.436Z,406.67
2022-11-21T10:18:00.861Z,393.55
2022-11-21T10:20:27.666Z,400.85
2022-11-21T10:23:09.105Z,390.00
2022-11-21T10:25:39.950Z,407.67
2022-11-21T10:28:23.177Z,389.42
2022-11-21T10:30:52.532Z,406.23
2022-11-21T10:33:31.649Z,390.15
2022-11-21T10:36:05.676Z,404.58
2022-11-21T10:38:38.206Z,405.50
2022-11-21T10:41:30.522Z,409.92
2022-11-21T10:44:23.112Z,412.02
2022-11-21T10:46:57.335Z,414.13
2022-11-21T10:49:28.985Z,410.60
2022-11-21T10:52:15.063Z,414.00
2022-11-21T10:55:02.591Z,408.02
2022-11-21T10:57:33.092Z,403.83
2022-11-21T11:00:02.473Z,390.98
2022-11-21T11:02:29.170Z,398.37
2022-11-21T11:05:15.971Z,405.25
2022-11-21T11:07:58.683Z,393.35
2022-11-21T11:10:28.137Z,398.05
2022-11-21T11:13:38.867Z,389.08
2022-11-21T11:16:18.111Z,377.80
2022-11-21T11:19:11.000Z,386.20
2022-11-21T11:21:50.660Z,383.52
2022-11-21T11:24:17.575Z,388.48
2022-11-21T11:26:48.475Z,382.08
2022-11-21T11:29:21.080Z,381.75
2022-11-21T11:32:01.016Z,381.60
2022-11-21T11:34:40.655Z,392.88
2022-11-21T11:37:12.754Z,394.27
2022-11-21T11:40:08.649Z,387.27
2022-11-21T11:43:21.268Z,393.35
2022-11-21T11:46:18.915Z,384.20
2022-11-21T11:49:16.840Z,383.25
2022-11-21T11:51:42.274Z,387.00
2022-11-21T11:54:20.015Z,369.92
2022-11-21T11:56:47.409Z,379.13
2022-11-21T11:59:31.620Z,368.93
2022-11-21T12:02:17.508Z,387.63
2022-11-21T12:04:56.580Z,392.48
2022-11-21T12:08:33.122Z,380.97
2022-11-21T12:10:27.585Z,381.95
2022-11-21T12:13:11.228Z,390.95
2022-11-21T12:15:49.821Z,384.73
2022-11-21T12:18:22.347Z,391.15
2022-11-21T12:21:14.276Z,384.10
2022-11-21T12:23:58.117Z,399.50
2022-11-21T12:26:36.344Z,393.90
2022-11-21T12:29:32.115Z,403.02
2022-11-21T12:32:04.815Z,407.83
2022-11-21T12:34:40.561Z,409.00
2022-11-21T12:37:28.997Z,412.80
2022-11-21T12:40:00.434Z,411.42
2022-11-21T12:42:51.441Z,406.23
2022-11-21T12:45:36.728Z,407.00
2022-11-21T12:48:40.728Z,411.17
2022-11-21T12:51:57.133Z,392.83
2022-11-21T12:54:38.662Z,399.45
2022-11-21T12:57:11.711Z,404.80
2022-11-21T12:59:53.527Z,404.70
2022-11-21T13:02:55.564Z,397.73
2022-11-21T13:05:27.639Z,403.65
2022-11-21T13:08:02.327Z,407.20
2022-11-21T13:10:29.828Z,403.45
2022-11-21T13:13:23.912Z,409.75
2022-11-21T13:16:10.474Z,414.90
2022-11-21T13:18:48.964Z,400.30
2022-11-21T13:21:53.084Z,411.48
2022-11-21T13:24:45.144Z,396.35
2022-11-21T13:27:31.046Z,399.87
2022-11-21T13:30:07.650Z,408.83
2022-11-21T13:32:49.893Z,397.30
2022-11-21T13:35:16.565Z,404.40
2022-11-21T13:37:49.315Z,400.42
2022-11-21T13:40:28.482Z,410.52
2022-11-21T13:43:33.283Z,404.33
2022-11-21T13:46:01.387Z,402.93
2022-11-21T13:48:40.222Z,413.00
2022-11-21T13:51:38.024Z,418.27
2022-11-21T13:54:26.037Z,412.05
2022-11-21T13:57:23.877Z,426.88
2022-11-21T14:00:28.086Z,418.65
2022-11-21T14:02:57.805Z,409.48
2022-11-21T14:06:03.759Z,420.85
2022-11-21T14:08:30.689Z,429.80
2022-11-21T14:10:58.450Z,427.83
2022-11-21T14:13:31.591Z,437.40
2022-11-21T14:16:07.235Z,422.13
2022-11-21T14:18:35.883Z,418.42
2022-11-21T14:21:04.417Z,421.00
2022-11-21T14:23:34.146Z,411.05
2022-11-21T14:26:12.513Z,419.17
2022-11-21T14:28:39.324Z,413.20
2022-11-21T14:31:08.862Z,405.77
2022-11-21T14:33:40.482Z,399.17
2022-11-21T14:36:16.458Z,393.63
2022-11-21T14:39:13.879Z,395.50
2022-11-21T14:41:39.056Z,383.13
2022-11-21T14:44:17.011Z,389.45
2022-11-21T14:46:44.439Z,406.98
2022-11-21T14:49:16.938Z,396.95
2022-11-21T14:51:48.169Z,399.67
2022-11-21T14:54:18.964Z,424.02
2022-11-21T14:56:56.207Z,435.08
2022-11-21T14:59:26.171Z,430.38
2022-11-21T15:02:11.538Z,454.95
2022-11-21T15:04:38.609Z,454.85
2022-11-21T15:07:05.278Z,442.55
2022-11-21T15:12:48.009Z,431.85
2022-11-21T15:15:36.049Z,430.90
2022-11-21T15:20:56.369Z,424.45
2022-11-21T15:23:27.142Z,427.77
2022-11-21T15:28:54.963Z,410.50
2022-11-21T15:31:23.403Z,409.70
2022-11-21T15:34:12.538Z,413.02
2022-11-21T15:36:40.622Z,408.00
2022-11-21T15:39:18.982Z,408.20
2022-11-21T15:41:46.145Z,405.38
2022-11-21T15:44:13.565Z,397.33
2022-11-21T15:46:43.801Z,393.10
2022-11-21T15:52:07.717Z,397.53
2022-11-21T15:54:36.770Z,393.75
2022-11-21T15:57:03.401Z,420.88
2022-11-21T15:57:13.008Z,413.38
2022-11-21T15:57:14.195Z,408.95
2022-11-21T15:59:30.266Z,396.80
2022-11-21T16:01:57.260Z,401.30
2022-11-21T16:04:25.963Z,391.67
2022-11-21T16:06:53.909Z,401.40
2022-11-21T16:09:20.511Z,397.50
2022-11-21T16:11:47.413Z,394.45
2022-11-21T16:14:16.054Z,400.45
2022-11-21T16:16:43.881Z,406.55
2022-11-21T16:19:14.604Z,407.40
2022-11-21T16:21:41.834Z,410.23
2022-11-21T16:24:08.584Z,412.80
2022-11-21T16:26:35.166Z,414.95
2022-11-21T16:29:05.370Z,407.57
2022-11-21T16:31:32.478Z,399.70
2022-11-21T16:34:00.464Z,415.17
2022-11-21T16:36:29.100Z,418.00
2022-11-21T16:39:00.429Z,423.30
2022-11-21T16:41:30.149Z,414.23
2022-11-21T16:43:56.783Z,412.33
2022-11-21T16:46:25.281Z,412.65
2022-11-21T16:49:02.672Z,415.97
2022-11-21T16:51:30.080Z,430.17
2022-11-21T16:53:57.508Z,448.33
2022-11-21T16:56:24.877Z,428.37
2022-11-21T16:58:51.423Z,423.05
2022-11-21T17:01:21.265Z,431.00
2022-11-21T17:03:49.240Z,429.83
2022-11-21T17:06:18.526Z,414.10
2022-11-21T17:08:46.979Z,401.85
2022-11-21T17:11:18.234Z,395.10
2022-11-21T17:13:47.116Z,400.23
2022-11-21T17:16:15.161Z,397.85
2022-11-21T17:18:41.731Z,396.85
2022-11-21T17:21:11.230Z,392.17
2022-11-21T17:23:39.952Z,393.10
2022-11-21T17:26:08.642Z,397.42
2022-11-21T17:28:37.941Z,391.45
2022-11-21T17:31:11.422Z,387.88
2022-11-21T17:33:38.383Z,392.52
2022-11-21T17:36:06.909Z,394.73
2022-11-21T17:38:33.582Z,395.17
2022-11-21T17:41:04.530Z,400.88
2022-11-21T17:43:32.465Z,405.50
2022-11-21T17:46:09.301Z,406.70
2022-11-21T17:48:38.132Z,410.30
2022-11-21T17:51:20.370Z,394.25
2022-11-21T17:53:48.989Z,400.65
2022-11-21T17:56:17.748Z,415.30
2022-11-21T17:58:44.922Z,401.40
2022-11-21T18:01:18.463Z,395.83
2022-11-21T18:03:47.101Z,399.02
2022-11-21T18:06:16.177Z,395.17
2022-11-21T18:08:45.420Z,394.40
2022-11-21T18:11:14.034Z,389.13
2022-11-21T18:13:41.064Z,394.42
2022-11-21T18:16:20.232Z,393.73
2022-11-21T18:18:47.526Z,397.65
2022-11-21T18:21:17.176Z,401.73
2022-11-21T18:23:44.423Z,403.85
2022-11-21T18:26:16.696Z,402.27
2022-11-21T18:28:43.947Z,397.73
2022-11-21T18:31:13.242Z,391.92
2022-11-21T18:33:40.960Z,394.15
2022-11-21T18:36:08.696Z,398.20
2022-11-21T18:38:48.878Z,395.77
2022-11-21T18:41:18.480Z,415.23
2022-11-21T18:43:50.727Z,400.95
2022-11-21T18:46:17.654Z,404.23
2022-11-21T18:49:02.121Z,408.58
2022-11-21T18:51:32.109Z,407.42
2022-11-21T18:54:00.971Z,399.70
2022-11-21T18:56:27.579Z,399.90
2022-11-21T18:58:58.595Z,393.85
2022-11-21T19:01:28.103Z,392.83
2022-11-21T19:03:55.654Z,398.85
2022-11-21T19:06:24.393Z,397.25
2022-11-21T19:08:55.855Z,402.60
2022-11-21T19:11:24.690Z,410.55
2022-11-21T19:13:52.515Z,411.98
2022-11-21T19:16:21.559Z,413.35
2022-11-21T19:19:11.760Z,405.73
2022-11-21T19:21:39.771Z,401.75
2022-11-21T19:24:10.289Z,402.75
2022-11-21T19:26:36.899Z,398.03
2022-11-21T19:29:03.601Z,413.35
2022-11-21T19:31:30.205Z,407.50
2022-11-21T19:33:58.106Z,414.02
2022-11-21T19:36:25.148Z,406.58
2022-11-21T19:38:52.048Z,404.90
2022-11-21T19:41:22.453Z,406.80
2022-11-21T19:43:51.374Z,426.05
2022-11-21T19:46:26.602Z,415.83
2022-11-21T19:48:55.583Z,424.70
2022-11-21T19:51:27.589Z,429.20
2022-11-21T19:53:54.221Z,421.63
2022-11-21T19:56:23.257Z,423.70
2022-11-21T19:58:50.424Z,431.43
2022-11-21T20:01:19.443Z,426.02
2022-11-21T20:03:47.931Z,423.98
2022-11-21T20:06:20.065Z,428.33
2022-11-21T20:08:52.709Z,425.00
2022-11-21T20:11:20.749Z,422.92
2022-11-21T20:13:48.695Z,424.57
2022-11-21T20:16:28.492Z,414.38
2022-11-21T20:18:57.735Z,432.23
2022-11-21T20:21:24.368Z,427.42
2022-11-21T20:23:51.203Z,418.88
2022-11-21T20:26:19.859Z,424.10
2022-11-21T20:28:47.189Z,420.83
2022-11-21T20:31:16.885Z,423.63
2022-11-21T20:33:46.043Z,429.40
2022-11-21T20:36:17.316Z,412.23
2022-11-21T20:38:58.123Z,418.02
2022-11-21T20:41:27.038Z,421.58
2022-11-21T20:46:46.127Z,429.80
2022-11-21T20:49:12.744Z,426.03
2022-11-21T20:54:27.058Z,420.77
2022-11-21T20:56:53.812Z,419.38
2022-11-21T20:59:20.399Z,429.95
2022-11-21T21:01:47.241Z,418.02
2022-11-21T21:04:13.918Z,420.00
2022-11-21T21:06:40.474Z,427.90
2022-11-21T21:09:07.283Z,432.42
2022-11-21T21:14:21.870Z,434.10
2022-11-21T21:16:48.680Z,439.52
2022-11-21T21:19:15.389Z,438.25
2022-11-21T21:21:42.028Z,446.02
2022-11-21T21:24:10.797Z,442.87
2022-11-21T21:26:42.977Z,454.03
2022-11-21T21:29:11.858Z,458.43
2022-11-21T21:31:38.759Z,449.13
2022-11-21T21:34:05.701Z,456.00
2022-11-21T21:36:32.521Z,457.58
2022-11-21T21:39:00.142Z,469.55
2022-11-21T21:41:29.676Z,457.15
2022-11-21T21:43:57.514Z,470.50
2022-11-21T21:46:25.792Z,467.80
2022-11-21T21:48:57.212Z,465.60
2022-11-21T21:51:26.280Z,460.90
2022-11-21T21:53:54.594Z,452.60
2022-11-21T21:56:22.927Z,456.50
2022-11-21T21:58:50.698Z,469.33
2022-11-21T22:01:19.602Z,469.75
2022-11-21T22:03:58.979Z,477.48
2022-11-21T22:06:25.929Z,484.93
2022-11-21T22:08:54.023Z,477.08
2022-11-21T22:11:22.954Z,473.35
2022-11-21T22:13:58.571Z,468.00
2022-11-21T22:16:25.874Z,467.95
2022-11-21T22:18:53.042Z,472.13
2022-11-21T22:21:25.336Z,467.77
2022-11-21T22:24:23.077Z,460.57
2022-11-21T22:26:38.839Z,467.10
2022-11-21T22:29:05.710Z,470.47
2022-11-21T22:31:32.859Z,476.98
2022-11-21T22:33:59.945Z,479.75
2022-11-21T22:36:26.617Z,481.50
2022-11-21T22:38:54.655Z,474.50
2022-11-21T22:41:26.510Z,485.70
2022-11-21T22:43:55.566Z,478.27
2022-11-21T22:46:22.981Z,482.85
2022-11-21T22:48:49.920Z,470.97
2022-11-21T22:51:22.277Z,478.95
2022-11-21T22:53:49.503Z,480.40
2022-11-21T22:56:18.781Z,477.27
2022-11-21T22:58:45.930Z,473.13
2022-11-21T23:01:23.739Z,481.35
2022-11-21T23:03:50.951Z,478.15
2022-11-21T23:06:20.157Z,479.08
2022-11-21T23:08:47.405Z,479.10
2022-11-21T23:11:17.265Z,473.60
2022-11-21T23:13:45.724Z,475.95
2022-11-21T23:16:13.180Z,471.02
2022-11-21T23:18:40.312Z,470.70
2022-11-21T23:21:08.057Z,469.88
2022-11-21T23:23:34.905Z,468.67
2022-11-21T23:26:01.712Z,478.73
2022-11-21T23:28:28.588Z,463.67
2022-11-21T23:30:55.297Z,468.48
2022-11-21T23:33:22.028Z,474.15
2022-11-21T23:35:48.841Z,471.17
2022-11-21T23:38:16.957Z,473.67
2022-11-21T23:40:47.811Z,474.15
2022-11-21T23:43:15.655Z,480.40
2022-11-21T23:45:42.638Z,483.00
2022-11-21T23:48:09.297Z,480.60
2022-11-21T23:50:35.903Z,484.83
2022-11-21T23:53:03.148Z,485.50
2022-11-21T23:55:29.865Z,479.15
2022-11-21T23:57:56.407Z,476.20
